Time;durP1;ratioP1;P1;durP2;ratioP2;P2;SDS_P1;SDS_P2;PMS_P1;PMS_P2;Temp;Humidity;BMP_temperature;BMP_pressure;BME280_temperature;BME280_humidity;BME280_pressure;Samples;Min_cycle;Max_cycle;Signal;HPM_P1;HPM_P2
2023/03/16 00:01:40;;;;;;;8.20;7.40;;;;;;;-0.53;100.00;96126.03;5006359;28;20049;-74
2023/03/16 00:04:07;;;;;;;9.52;7.75;;;;;;;-0.55;100.00;96126.94;5005890;28;20054;-73
2023/03/16 00:06:35;;;;;;;8.57;7.00;;;;;;;-0.55;100.00;96127.75;5014141;28;20049;-74
2023/03/16 00:09:01;;;;;;;22.38;7.20;;;;;;;-0.35;100.00;96131.72;5012769;28;20050;-74
2023/03/16 00:11:28;;;;;;;8.43;6.70;;;;;;;-0.29;100.00;96134.19;5009082;28;20046;-74
2023/03/16 00:13:55;;;;;;;7.47;6.78;;;;;;;-0.30;100.00;96135.91;5004602;28;20057;-74
2023/03/16 00:16:21;;;;;;;7.72;6.93;;;;;;;-0.41;100.00;96132.63;5011612;28;20065;-74
2023/03/16 00:18:49;;;;;;;17.33;7.63;;;;;;;-0.40;100.00;96129.25;5012438;28;20046;-74
2023/03/16 00:21:16;;;;;;;10.18;7.40;;;;;;;-0.32;100.00;96124.88;5013697;28;20050;-75
2023/03/16 00:23:42;;;;;;;16.75;8.00;;;;;;;-0.25;100.00;96126.47;5014693;28;20057;-74
2023/03/16 00:26:11;;;;;;;12.32;7.97;;;;;;;-0.50;100.00;96136.16;5014510;28;20042;-75
2023/03/16 00:28:38;;;;;;;15.90;7.13;;;;;;;-0.68;100.00;96126.22;5014375;28;20045;-75
2023/03/16 00:31:07;;;;;;;15.27;7.30;;;;;;;-0.60;100.00;96128.66;5013992;28;20050;-75
2023/03/16 00:33:33;;;;;;;11.30;6.75;;;;;;;-0.69;100.00;96133.91;5013807;28;20046;-73
2023/03/16 00:36:02;;;;;;;8.98;5.90;;;;;;;-0.82;100.00;96131.47;5004907;28;20108;-73
2023/03/16 00:38:30;;;;;;;7.82;6.20;;;;;;;-0.77;100.00;96134.00;5008911;28;20064;-73
2023/03/16 00:40:57;;;;;;;9.90;7.50;;;;;;;-0.66;100.00;96126.22;5009171;28;20065;-73
2023/03/16 00:43:26;;;;;;;7.35;6.57;;;;;;;-0.75;100.00;96140.72;5009749;28;20046;-74
2023/03/16 00:45:57;;;;;;;16.08;7.25;;;;;;;-0.74;100.00;96132.25;5003556;28;20428;-73
2023/03/16 00:48:24;;;;;;;7.97;6.80;;;;;;;-0.67;100.00;96129.59;5011649;28;20050;-74
2023/03/16 00:50:53;;;;;;;10.10;6.20;;;;;;;-0.86;100.00;96132.38;5011852;28;20046;-74
2023/03/16 00:53:21;;;;;;;6.47;5.85;;;;;;;-1.01;100.00;96127.50;5013094;28;20085;-73
2023/03/16 00:55:48;;;;;;;6.03;5.43;;;;;;;-0.99;100.00;96116.44;5010575;28;20104;-75
2023/03/16 00:58:14;;;;;;;18.27;7.28;;;;;;;-0.82;100.00;96123.00;5013489;28;20512;-75
2023/03/16 01:00:41;;;;;;;15.45;7.30;;;;;;;-0.82;100.00;96121.31;5001686;28;20055;-74
2023/03/16 01:03:08;;;;;;;7.47;5.53;;;;;;;-0.86;100.00;96117.13;5009388;28;20050;-74
2023/03/16 01:05:39;;;;;;;6.80;6.15;;;;;;;-1.09;100.00;96111.50;5009885;28;20045;-74
2023/03/16 01:08:06;;;;;;;5.35;4.57;;;;;;;-1.18;100.00;96114.16;5010864;28;20050;-74
2023/03/16 01:10:35;;;;;;;6.35;5.75;;;;;;;-1.25;100.00;96110.84;5012085;28;20125;-74
2023/03/16 01:13:02;;;;;;;5.57;5.00;;;;;;;-1.26;100.00;96107.47;5004615;28;20061;-74
2023/03/16 01:15:28;;;;;;;53.50;7.22;;;;;;;-1.16;100.00;96112.41;5007566;28;20667;-73
2023/03/16 01:17:55;;;;;;;4.80;4.40;;;;;;;-1.35;100.00;96112.63;5001888;28;20397;-74
2023/03/16 01:20:22;;;;;;;7.32;4.60;;;;;;;-1.39;100.00;96113.53;5012186;28;20068;-74
2023/03/16 01:22:48;;;;;;;7.28;4.97;;;;;;;-1.32;100.00;96112.59;5012392;28;20496;-74
2023/03/16 01:25:15;;;;;;;7.40;5.35;;;;;;;-1.37;100.00;96106.75;5012386;28;20045;-76
2023/03/16 01:27:43;;;;;;;4.85;4.43;;;;;;;-1.35;100.00;96111.78;5009103;28;20061;-75
2023/03/16 01:30:11;;;;;;;6.63;5.90;;;;;;;-1.37;100.00;96104.19;5013429;28;20049;-75
2023/03/16 01:32:38;;;;;;;6.35;5.75;;;;;;;-1.36;100.00;96107.56;5011151;28;20042;-75
2023/03/16 01:35:06;;;;;;;6.07;5.40;;;;;;;-1.33;100.00;96105.00;5012787;28;20050;-75
2023/03/16 01:37:32;;;;;;;6.78;5.53;;;;;;;-1.27;100.00;96105.75;5013293;28;20424;-76
2023/03/16 01:39:59;;;;;;;6.85;6.15;;;;;;;-1.30;100.00;96104.94;5013607;28;20046;-75
2023/03/16 01:42:25;;;;;;;7.75;6.15;;;;;;;-1.42;100.00;96105.94;5008344;28;20045;-75
2023/03/16 01:44:56;;;;;;;5.90;5.30;;;;;;;-1.29;100.00;96102.41;5008351;28;20054;-74
2023/03/16 01:47:23;;;;;;;8.50;6.25;;;;;;;-1.23;100.00;96102.31;5009818;28;20049;-74
2023/03/16 01:49:53;;;;;;;7.38;5.30;;;;;;;-1.09;100.00;96103.88;5012459;28;20049;-75
2023/03/16 01:52:24;;;;;;;5.40;4.85;;;;;;;-1.08;100.00;96105.53;5013100;28;20046;-75
2023/03/16 01:54:52;;;;;;;7.22;5.72;;;;;;;-1.20;100.00;96105.69;5007343;28;20411;-75
2023/03/16 01:57:21;;;;;;;5.82;4.28;;;;;;;-1.22;100.00;96109.09;5010166;28;20042;-76
2023/03/16 01:59:51;;;;;;;6.75;3.28;;;;;;;-1.54;100.00;96111.97;5006741;28;20073;-75
2023/03/16 02:02:22;;;;;;;7.05;2.80;;;;;;;-1.62;100.00;96107.84;5002208;28;20053;-75
2023/03/16 02:04:52;;;;;;;5.72;3.25;;;;;;;-1.63;100.00;96104.47;5005701;28;20050;-75
2023/03/16 02:07:23;;;;;;;7.70;2.67;;;;;;;-1.56;100.00;96085.78;5008022;28;20050;-74
2023/03/16 02:09:54;;;;;;;6.40;2.40;;;;;;;-1.49;100.00;96078.91;5010382;28;20050;-74
2023/03/16 02:12:21;;;;;;;8.23;2.80;;;;;;;-1.33;100.00;96084.69;5007564;28;20050;-74
2023/03/16 02:14:49;;;;;;;3.50;3.05;;;;;;;-1.25;100.00;96077.81;5012101;28;20069;-74
2023/03/16 02:17:19;;;;;;;5.53;2.58;;;;;;;-1.48;100.00;96078.06;5004097;28;20054;-74
2023/03/16 02:20:00;;;;;;;3.78;2.97;;;;;;;-1.55;100.00;96089.16;5009859;28;20058;-75
2023/03/16 02:22:27;;;;;;;6.07;3.53;;;;;;;-1.61;100.00;96100.19;5010710;28;20528;-75
2023/03/16 02:24:55;;;;;;;14.30;3.10;;;;;;;-1.71;100.00;96098.59;5011387;28;20211;-74
2023/03/16 02:27:31;;;;;;;4.03;3.63;;;;;;;-1.63;100.00;96099.38;5011094;28;20049;-75
2023/03/16 02:30:02;;;;;;;4.55;3.47;;;;;;;-1.65;100.00;96101.09;5011363;28;20050;-73
2023/03/16 02:32:32;;;;;;;3.38;3.08;;;;;;;-1.56;100.00;96110.31;5010986;28;20045;-73
2023/03/16 02:35:00;;;;;;;5.90;3.60;;;;;;;-1.44;100.00;96097.50;5008013;28;20137;-74
2023/03/16 02:37:27;;;;;;;4.18;2.92;;;;;;;-1.36;100.00;96093.16;5011107;28;20053;-74
2023/03/16 02:39:53;;;;;;;7.03;4.10;;;;;;;-1.22;100.00;96083.69;5011234;28;20050;-74
2023/03/16 02:42:23;;;;;;;4.90;3.67;;;;;;;-1.19;100.00;96084.50;5006862;28;20046;-74
2023/03/16 02:44:54;;;;;;;5.80;3.45;;;;;;;-1.22;100.00;96081.16;5006390;28;20057;-74
2023/03/16 02:47:28;;;;;;;3.78;3.28;;;;;;;-1.04;100.00;96076.69;5011049;28;20053;-74
2023/03/16 02:49:55;;;;;;;4.38;3.97;;;;;;;-1.09;100.00;96066.56;5008840;28;20057;-74
2023/03/16 02:52:21;;;;;;;5.75;4.22;;;;;;;-0.97;100.00;96066.41;5004590;28;20080;-75
2023/03/16 02:54:47;;;;;;;4.20;3.80;;;;;;;-1.01;100.00;96056.31;5007488;28;20049;-75
2023/03/16 02:57:14;;;;;;;5.45;4.22;;;;;;;-0.87;100.00;96056.97;5009887;28;20053;-75
2023/03/16 02:59:40;;;;;;;5.00;4.50;;;;;;;-0.82;100.00;96052.66;5010678;28;20269;-75
2023/03/16 03:02:07;;;;;;;5.97;5.10;;;;;;;-0.77;100.00;96053.44;5006238;28;20062;-74
2023/03/16 03:04:35;;;;;;;5.30;4.80;;;;;;;-0.72;100.00;96058.47;5009297;28;20049;-74
2023/03/16 03:07:03;;;;;;;6.20;5.60;;;;;;;-0.76;100.00;96057.66;5010712;28;20049;-74
2023/03/16 03:09:32;;;;;;;9.18;6.32;;;;;;;-0.73;100.00;96039.81;5008535;28;20120;-74
2023/03/16 03:11:58;;;;;;;6.57;5.93;;;;;;;-0.71;100.00;96047.41;5010439;28;20089;-74
2023/03/16 03:14:27;;;;;;;8.93;7.22;;;;;;;-0.86;100.00;96040.84;5010119;28;20054;-74
2023/03/16 03:16:53;;;;;;;9.23;7.68;;;;;;;-0.90;100.00;96048.53;5010006;28;20053;-73
2023/03/16 03:19:21;;;;;;;9.07;8.18;;;;;;;-1.11;100.00;96042.03;5003366;28;20054;-75
2023/03/16 03:21:50;;;;;;;8.02;7.32;;;;;;;-0.98;100.00;96046.94;5011202;28;20072;-75
2023/03/16 03:24:17;;;;;;;12.50;7.63;;;;;;;-0.83;100.00;96052.69;5010800;28;20049;-75
2023/03/16 03:26:44;;;;;;;13.50;8.20;;;;;;;-0.87;100.00;96049.34;5012015;28;20173;-75
2023/03/16 03:29:11;;;;;;;9.20;8.35;;;;;;;-1.10;100.00;96052.19;5010335;28;20077;-75
2023/03/16 03:31:37;;;;;;;17.55;8.23;;;;;;;-0.94;100.00;96034.19;5011741;28;20444;-74
2023/03/16 03:34:05;;;;;;;12.18;8.30;;;;;;;-0.99;100.00;96037.63;5011651;28;20050;-74
2023/03/16 03:36:32;;;;;;;9.43;8.43;;;;;;;-0.90;100.00;96030.75;5008046;28;20050;-74
2023/03/16 03:39:03;;;;;;;8.50;7.70;;;;;;;-0.80;100.00;96039.94;5007581;28;20049;-75
2023/03/16 03:41:30;;;;;;;11.77;8.93;;;;;;;-0.70;100.00;96038.09;5005697;28;20505;-74
2023/03/16 03:43:57;;;;;;;8.10;7.32;;;;;;;-0.73;100.00;96032.19;5009051;28;20050;-75
2023/03/16 03:46:23;;;;;;;10.40;9.30;;;;;;;-0.73;100.00;96028.81;5011247;28;20053;-75
2023/03/16 03:48:50;;;;;;;8.82;8.02;;;;;;;-0.82;100.00;96034.84;5009372;28;20060;-75
2023/03/16 03:51:16;;;;;;;11.82;8.45;;;;;;;-0.88;100.00;96034.97;5006078;28;20055;-74
2023/03/16 03:53:42;;;;;;;10.32;9.30;;;;;;;-0.77;100.00;96033.09;5004670;28;20057;-74
2023/03/16 03:56:10;;;;;;;17.67;9.82;;;;;;;-0.87;100.00;96026.47;5010353;28;20050;-73
2023/03/16 03:58:37;;;;;;;9.25;8.40;;;;;;;-0.86;100.00;96034.94;5001902;28;20058;-73
2023/03/16 04:01:03;;;;;;;10.55;8.63;;;;;;;-0.86;100.00;96033.22;5005877;28;20046;-73
2023/03/16 04:03:30;;;;;;;10.02;8.25;;;;;;;-0.90;100.00;96029.03;5008193;28;20053;-73
2023/03/16 04:05:56;;;;;;;9.73;8.73;;;;;;;-0.88;100.00;96029.88;5010563;28;20610;-73
2023/03/16 04:08:23;;;;;;;11.93;9.27;;;;;;;-1.08;100.00;96032.66;5008273;28;20436;-74
2023/03/16 04:10:50;;;;;;;10.45;9.35;;;;;;;-1.17;100.00;96025.19;5004612;28;20053;-74
2023/03/16 04:13:18;;;;;;;9.50;8.60;;;;;;;-1.11;100.00;96025.09;5011185;28;20050;-74
2023/03/16 04:15:45;;;;;;;12.55;9.52;;;;;;;-1.12;100.00;96028.50;5003202;28;20057;-75
2023/03/16 04:18:12;;;;;;;10.10;9.10;;;;;;;-1.17;100.00;96026.88;5004672;28;20129;-75
2023/03/16 04:20:39;;;;;;;11.40;10.05;;;;;;;-1.31;100.00;96014.34;5010704;28;20088;-75
2023/03/16 04:23:05;;;;;;;10.05;8.00;;;;;;;-1.33;100.00;96027.06;5009273;28;20489;-74
2023/03/16 04:25:32;;;;;;;10.10;9.10;;;;;;;-1.34;100.00;96032.16;5014386;28;20057;-74
2023/03/16 04:27:58;;;;;;;14.00;10.82;;;;;;;-1.31;100.00;96020.25;5008732;28;20062;-73
2023/03/16 04:30:26;;;;;;;10.80;9.73;;;;;;;-1.27;100.00;96015.97;5003992;28;20086;-74
2023/03/16 04:32:53;;;;;;;10.88;8.82;;;;;;;-1.16;100.00;96019.22;5011104;28;20121;-73
2023/03/16 04:35:19;;;;;;;19.60;9.57;;;;;;;-1.19;100.00;96018.41;5007849;28;20057;-73
2023/03/16 04:37:46;;;;;;;11.48;9.38;;;;;;;-1.18;100.00;96015.88;5009963;28;20069;-73
2023/03/16 04:40:16;;;;;;;10.55;8.73;;;;;;;-1.14;100.00;96017.50;5013858;28;20050;-76
2023/03/16 04:42:43;;;;;;;11.65;9.38;;;;;;;-1.11;100.00;96014.06;5010487;28;20055;-73
2023/03/16 04:45:11;;;;;;;9.20;8.35;;;;;;;-0.99;100.00;96013.94;5013567;28;20052;-74
2023/03/16 04:47:39;;;;;;;12.00;9.77;;;;;;;-0.96;100.00;96011.34;5008756;28;20060;-74
2023/03/16 04:50:06;;;;;;;10.23;9.23;;;;;;;-0.87;100.00;96003.56;5010945;28;20053;-74
2023/03/16 04:52:33;;;;;;;11.07;8.82;;;;;;;-0.81;100.00;96012.84;5011781;28;20056;-74
2023/03/16 04:54:59;;;;;;;11.68;10.35;;;;;;;-0.85;100.00;96006.94;5013264;28;20050;-74
2023/03/16 04:57:26;;;;;;;10.30;9.25;;;;;;;-1.14;100.00;95999.72;5006025;28;20053;-74
2023/03/16 04:59:52;;;;;;;11.02;9.88;;;;;;;-1.31;100.00;96001.63;5005714;28;20046;-74
2023/03/16 05:02:19;;;;;;;10.02;9.00;;;;;;;-1.09;100.00;96002.19;5010955;28;20057;-74
2023/03/16 05:04:48;;;;;;;10.65;8.57;;;;;;;-1.19;100.00;96006.56;5009636;28;20128;-73
2023/03/16 05:07:15;;;;;;;14.10;9.40;;;;;;;-1.14;100.00;95998.88;5012928;28;20049;-74
2023/03/16 05:09:41;;;;;;;10.75;8.95;;;;;;;-1.29;100.00;96000.75;5003833;28;20165;-74
2023/03/16 05:12:08;;;;;;;10.38;8.60;;;;;;;-1.15;100.00;96003.13;5007498;28;20045;-74
2023/03/16 05:14:35;;;;;;;9.35;8.45;;;;;;;-1.13;100.00;96003.94;5003642;28;20038;-74
2023/03/16 05:17:03;;;;;;;9.80;8.85;;;;;;;-1.09;100.00;96002.19;5012810;28;20473;-73
2023/03/16 05:19:29;;;;;;;9.55;8.65;;;;;;;-1.10;100.00;96006.44;5011067;28;20550;-74
2023/03/16 05:21:57;;;;;;;10.15;8.77;;;;;;;-1.04;100.00;96008.03;5011346;28;20052;-74
2023/03/16 05:24:24;;;;;;;10.13;9.13;;;;;;;-1.04;100.00;96008.03;5013033;28;20042;-73
2023/03/16 05:26:51;;;;;;;11.90;9.00;;;;;;;-1.01;100.00;96013.94;5012729;28;20054;-73
2023/03/16 05:29:17;;;;;;;10.88;9.27;;;;;;;-1.25;100.00;96007.47;5013070;28;20091;-73
2023/03/16 05:31:45;;;;;;;10.18;9.18;;;;;;;-1.31;100.00;95999.09;5010288;28;20061;-75
2023/03/16 05:34:12;;;;;;;9.43;8.43;;;;;;;-1.34;100.00;96002.50;5011942;28;20085;-75
2023/03/16 05:36:38;;;;;;;10.45;9.32;;;;;;;-1.32;100.00;95995.72;5013083;28;20042;-75
2023/03/16 05:39:07;;;;;;;12.27;9.80;;;;;;;-1.41;100.00;96000.06;5008004;28;20053;-75
2023/03/16 05:41:33;;;;;;;17.38;8.98;;;;;;;-1.57;100.00;95997.72;5011430;28;20050;-73
2023/03/16 05:44:00;;;;;;;15.07;8.20;;;;;;;-1.43;100.00;95997.56;5010824;28;20045;-75
2023/03/16 05:46:26;;;;;;;8.82;7.93;;;;;;;-1.32;100.00;96000.81;5008985;28;20053;-74
2023/03/16 05:48:53;;;;;;;11.80;7.93;;;;;;;-1.31;100.00;95999.94;5012075;28;20417;-73
2023/03/16 05:51:19;;;;;;;13.07;7.85;;;;;;;-1.23;100.00;95990.50;5011670;28;20096;-72
2023/03/16 05:53:46;;;;;;;11.13;8.95;;;;;;;-1.17;100.00;95992.13;5011121;28;20053;-72
2023/03/16 05:56:14;;;;;;;9.27;8.35;;;;;;;-1.27;100.00;95988.88;5011141;28;20119;-72
2023/03/16 05:58:41;;;;;;;17.85;9.73;;;;;;;-1.21;100.00;95987.97;5009666;28;20056;-74
2023/03/16 06:01:08;;;;;;;16.20;10.23;;;;;;;-1.34;100.00;95984.72;5006177;28;20054;-73
2023/03/16 06:03:35;;;;;;;20.77;8.77;;;;;;;-1.38;100.00;95978.00;5007721;28;20116;-74
2023/03/16 06:06:02;;;;;;;8.73;7.93;;;;;;;-1.29;100.00;95982.97;5006878;28;20054;-73
2023/03/16 06:08:28;;;;;;;8.73;7.53;;;;;;;-1.32;100.00;95982.19;5007659;28;20100;-74
2023/03/16 06:10:55;;;;;;;22.67;7.90;;;;;;;-1.43;100.00;95982.31;5007595;28;20053;-73
2023/03/16 06:13:23;;;;;;;7.97;7.25;;;;;;;-1.43;100.00;95986.56;5010966;28;20057;-74
2023/03/16 06:15:49;;;;;;;8.45;6.95;;;;;;;-1.31;100.00;95982.16;5000535;28;20489;-74
2023/03/16 06:18:16;;;;;;;7.85;7.15;;;;;;;-1.18;100.00;95987.09;5002904;28;20051;-73
2023/03/16 06:20:42;;;;;;;10.07;7.45;;;;;;;-1.24;100.00;95993.91;5008554;28;20424;-73
2023/03/16 06:23:08;;;;;;;15.57;8.45;;;;;;;-1.13;100.00;95992.94;5010489;28;20161;-73
2023/03/16 06:25:35;;;;;;;10.27;7.20;;;;;;;-1.10;100.00;95993.72;5000923;28;20045;-74
2023/03/16 06:28:01;;;;;;;8.15;7.30;;;;;;;-0.96;100.00;96003.72;5000170;28;20505;-74
2023/03/16 06:30:30;;;;;;;11.25;8.48;;;;;;;-0.92;100.00;96000.28;5007851;28;20053;-74
2023/03/16 06:32:58;;;;;;;7.82;7.10;;;;;;;-0.85;100.00;96001.03;5011261;28;20546;-74
2023/03/16 06:35:25;;;;;;;10.13;6.40;;;;;;;-0.84;100.00;95998.44;5006989;28;20074;-74
2023/03/16 06:37:52;;;;;;;8.05;7.25;;;;;;;-0.86;100.00;95999.31;5006976;28;20055;-74
2023/03/16 06:40:18;;;;;;;16.80;8.35;;;;;;;-1.03;100.00;96002.13;5008048;28;20451;-74
2023/03/16 06:42:45;;;;;;;8.25;7.45;;;;;;;-1.01;100.00;96010.56;5008064;28;20053;-73
2023/03/16 06:45:11;;;;;;;7.05;6.40;;;;;;;-0.99;100.00;96004.59;5011434;28;20073;-73
2023/03/16 06:47:39;;;;;;;8.60;6.78;;;;;;;-0.97;100.00;96002.84;5010199;28;20419;-78
2023/03/16 06:50:07;;;;;;;6.65;6.05;;;;;;;-0.87;100.00;96007.81;5005226;28;20050;-76
2023/03/16 06:52:34;;;;;;;9.85;7.30;;;;;;;-0.89;100.00;96005.31;5007537;28;20113;-76
2023/03/16 06:55:00;;;;;;;10.23;7.82;;;;;;;-0.81;100.00;96000.94;4999345;28;20042;-75
2023/03/16 06:57:27;;;;;;;6.97;6.38;;;;;;;-0.75;100.00;96005.09;5006868;28;20062;-75
2023/03/16 06:59:53;;;;;;;7.13;6.43;;;;;;;-1.16;100.00;96009.06;5010206;28;20077;-75
2023/03/16 07:02:22;;;;;;;9.82;8.10;;;;;;;-1.03;100.00;96008.03;4998685;28;20066;-75
2023/03/16 07:04:50;;;;;;;10.90;8.30;;;;;;;-1.00;100.00;96013.09;5009735;28;20519;-76
2023/03/16 07:07:18;;;;;;;9.70;7.43;;;;;;;-1.02;100.00;96008.88;5002621;28;20054;-76
2023/03/16 07:09:44;;;;;;;7.55;6.85;;;;;;;-1.08;100.00;96002.16;5008073;28;20055;-77
2023/03/16 07:12:12;;;;;;;7.22;6.63;;;;;;;-0.77;100.00;96005.13;5007660;28;20069;-76
2023/03/16 07:14:39;;;;;;;9.45;7.53;;;;;;;-0.64;100.00;96002.38;5001297;28;20046;-76
2023/03/16 07:17:05;;;;;;;9.63;8.63;;;;;;;-0.45;100.00;96016.50;5007622;28;20108;-77
2023/03/16 07:19:32;;;;;;;8.85;7.70;;;;;;;-0.48;100.00;96006.41;5008816;28;20633;-76
2023/03/16 07:22:01;;;;;;;13.75;7.07;;;;;;;-0.55;100.00;96007.34;5005667;28;20077;-76
2023/03/16 07:24:28;;;;;;;9.20;8.07;;;;;;;-0.69;100.00;96010.09;5011531;28;20042;-76
2023/03/16 07:26:55;;;;;;;7.88;7.18;;;;;;;-0.73;100.00;96016.09;5011026;28;20054;-77
2023/03/16 07:29:21;;;;;;;8.82;7.93;;;;;;;-0.73;100.00;96016.94;5007497;28;20515;-76
2023/03/16 07:31:48;;;;;;;8.13;7.32;;;;;;;-0.64;100.00;96010.03;5006312;28;20476;-76
2023/03/16 07:34:15;;;;;;;8.60;7.78;;;;;;;-0.46;100.00;96014.81;5001535;28;20050;-76
2023/03/16 07:36:41;;;;;;;8.57;7.65;;;;;;;-0.17;100.00;96013.53;5008430;28;20146;-76
2023/03/16 07:39:13;;;;;;;9.63;7.43;;;;;;;0.04;100.00;96012.28;5006466;28;20072;-76
2023/03/16 07:41:39;;;;;;;10.25;8.25;;;;;;;0.34;100.00;96010.91;5004952;28;20428;-77
2023/03/16 07:44:06;;;;;;;7.82;7.07;;;;;;;0.53;100.00;96014.78;5003975;28;20054;-77
2023/03/16 07:46:32;;;;;;;6.57;6.05;;;;;;;0.90;100.00;96011.47;5001911;28;20058;-76
2023/03/16 07:48:59;;;;;;;8.68;7.88;;;;;;;0.86;100.00;96013.25;5007601;28;20050;-74
2023/03/16 07:51:25;;;;;;;7.63;6.93;;;;;;;0.95;100.00;96017.31;5007730;28;20045;-74
2023/03/16 07:53:52;;;;;;;7.97;7.18;;;;;;;1.61;100.00;96015.84;5002925;28;20046;-74
2023/03/16 07:56:21;;;;;;;10.57;7.35;;;;;;;2.11;100.00;96011.19;5009496;28;20053;-74
2023/03/16 07:58:47;;;;;;;8.00;6.50;;;;;;;2.47;100.00;96017.03;5009851;28;20050;-74
2023/03/16 08:01:13;;;;;;;6.43;5.82;;;;;;;2.29;100.00;96015.81;5011686;28;20053;-75
2023/03/16 08:03:40;;;;;;;11.00;6.43;;;;;;;2.75;100.00;96013.75;5007858;28;20058;-75
2023/03/16 08:06:07;;;;;;;7.95;7.25;;;;;;;3.04;100.00;96018.00;5005095;28;20137;-75
2023/03/16 08:08:34;;;;;;;9.15;7.13;;;;;;;3.04;100.00;96018.00;5012523;28;20046;-74
2023/03/16 08:11:00;;;;;;;6.70;6.00;;;;;;;2.98;100.00;96029.28;5008696;28;20493;-75
2023/03/16 08:13:29;;;;;;;7.95;5.95;;;;;;;2.76;100.00;96018.81;5013316;28;20057;-75
2023/03/16 08:16:00;;;;;;;10.98;6.63;;;;;;;3.22;100.00;96021.75;5010552;28;20092;-75
2023/03/16 08:18:28;;;;;;;5.40;4.93;;;;;;;3.42;100.00;96008.34;5009489;28;20049;-76
2023/03/16 08:20:55;;;;;;;7.93;5.30;;;;;;;3.12;100.00;96014.34;5013236;28;20038;-76
2023/03/16 08:23:23;;;;;;;6.80;5.80;;;;;;;3.04;100.00;96006.06;5013856;28;20084;-75
2023/03/16 08:25:52;;;;;;;6.38;5.32;;;;;;;3.28;100.00;96004.47;5012415;28;20065;-76
2023/03/16 08:28:20;;;;;;;8.15;4.88;;;;;;;3.29;100.00;96000.19;5006349;28;20046;-76
2023/03/16 08:30:49;;;;;;;7.65;4.65;;;;;;;3.47;100.00;95991.13;5008284;28;20053;-76
2023/03/16 08:33:19;;;;;;;4.97;4.47;;;;;;;4.19;100.00;95986.19;5013836;28;20079;-76
2023/03/16 08:35:46;;;;;;;4.72;4.25;;;;;;;4.55;100.00;95990.03;5002111;28;20411;-76
2023/03/16 08:38:14;;;;;;;5.38;4.60;;;;;;;4.63;100.00;95982.06;5012058;28;20046;-76
2023/03/16 08:40:46;;;;;;;4.63;4.18;;;;;;;4.81;100.00;95993.38;5013657;28;20068;-77
2023/03/16 08:43:13;;;;;;;5.40;3.80;;;;;;;4.61;100.00;95992.38;5007334;28;20057;-77
2023/03/16 08:45:39;;;;;;;8.50;4.35;;;;;;;4.78;100.00;95990.94;5014267;28;20124;-77
2023/03/16 08:48:11;;;;;;;9.00;4.38;;;;;;;4.96;100.00;95985.13;5011455;28;20061;-77
2023/03/16 08:50:39;;;;;;;4.57;3.38;;;;;;;4.77;100.00;95991.84;5013389;28;20497;-77
2023/03/16 08:53:06;;;;;;;4.57;3.72;;;;;;;5.17;100.00;95991.19;5009150;28;20132;-77
2023/03/16 08:55:33;;;;;;;6.38;4.43;;;;;;;5.45;100.00;95985.84;5005813;28;20424;-78
2023/03/16 08:57:59;;;;;;;5.78;4.10;;;;;;;5.81;100.00;95980.94;5013586;28;20042;-78
2023/03/16 09:00:27;;;;;;;4.90;3.67;;;;;;;5.58;100.00;95979.31;5012211;28;20050;-77
2023/03/16 09:02:54;;;;;;;4.05;3.35;;;;;;;5.59;100.00;95980.97;5010181;28;20133;-77
2023/03/16 09:05:23;;;;;;;;;;;;;;;5.46;100.00;95971.25;5005821;28;20042;-77
2023/03/16 09:07:50;;;;;;;;;;;;;;;4.78;100.00;95971.28;5009357;28;19968;-77
2023/03/16 09:10:17;;;;;;;;;;;;;;;4.72;100.00;95976.63;5006811;28;19925;-76
2023/03/16 09:12:44;;;;;;;;;;;;;;;4.79;100.00;95978.06;5014072;28;19929;-77
2023/03/16 09:15:12;;;;;;;;;;;;;;;4.59;100.00;95981.34;5009177;28;20402;-77
2023/03/16 09:17:40;;;;;;;;;;;;;;;5.05;100.00;95991.66;5012674;28;20024;-74
2023/03/16 09:20:09;;;;;;;;;;;;;;;4.99;100.00;95990.16;5010178;28;20411;-74
2023/03/16 09:22:37;;;;;;;;;;;;;;;5.10;100.00;95985.44;5012419;28;20036;-74
2023/03/16 09:25:04;;;;;;;;;;;;;;;5.01;100.00;95977.28;5012764;28;19921;-74
2023/03/16 09:27:31;;;;;;;;;;;;;;;5.02;100.00;95982.34;5004114;28;20499;-76
2023/03/16 09:29:58;;;;;;;;;;;;;;;4.69;100.00;95986.97;5003585;28;19922;-76
2023/03/16 09:32:24;;;;;;;;;;;;;;;4.77;100.00;95969.56;5009810;28;19928;-76
2023/03/16 09:34:51;;;;;;;;;;;;;;;5.00;100.00;95963.56;5012833;28;19928;-76
2023/03/16 09:37:17;;;;;;;;;;;;;;;4.88;100.00;95955.50;5012950;28;19921;-76
2023/03/16 09:39:46;;;;;;;;;;;;;;;5.25;100.00;95955.78;5009633;28;19925;-77
2023/03/16 09:42:15;;;;;;;;;;;;;;;5.58;100.00;95957.91;5009531;28;20339;-73
2023/03/16 09:44:47;;;;;;;;;;;;;;;5.90;100.00;95954.06;5009857;28;19929;-75
2023/03/16 09:47:15;;;;;;;;;;;;;;;5.97;100.00;95959.78;5009613;28;19928;-75
2023/03/16 09:54:34;;;;;;;;;;;;;;;5.93;100.00;95955.66;5114278;27;20305;-75
2023/03/16 09:57:01;;;;;;;;;;;;;;;5.91;100.00;95955.72;5088509;27;20060;-78
2023/03/16 09:59:27;;;;;;;;;;;;;;;6.05;100.00;95950.88;5084014;28;20319;-76
2023/03/16 10:02:00;;;;;;;;;;;;;;;5.99;100.00;95960.56;5069809;28;19924;-76
2023/03/16 10:04:39;;;;;;;;;;;;;;;6.18;100.00;95947.78;5060267;28;19940;-76
2023/03/16 10:07:12;;;;;;;;;;;;;;;6.61;100.00;95941.59;5069009;28;20465;-76
2023/03/16 10:09:44;;;;;;;;;;;;;;;6.94;100.00;95944.41;5069075;28;20434;-75
2023/03/16 10:12:13;;;;;;;;;;;;;;;6.94;100.00;95944.41;5074059;28;20142;-75
2023/03/16 10:14:44;;;;;;;;;;;;;;;7.13;100.00;95941.81;5069067;28;19967;-75
2023/03/16 10:17:13;;;;;;;;;;;;;;;7.48;99.29;95929.00;5070651;28;19939;-75
2023/03/16 10:19:42;;;;;;;;;;;;;;;7.61;96.81;95937.81;5069065;28;20275;-77
2023/03/16 10:22:17;;;;;;;;;;;;;;;7.95;90.72;95938.75;5070298;28;19932;-77
2023/03/16 10:24:47;;;;;;;;;;;;;;;8.20;92.47;95933.19;5067970;28;19931;-75
2023/03/16 10:27:19;;;;;;;;;;;;;;;8.34;89.51;95924.72;5066679;28;20198;-74
2023/03/16 10:29:45;;;;;;;;;;;;;;;8.53;89.36;95924.63;5057057;28;20014;-76
2023/03/16 10:32:12;;;;;;;;;;;;;;;8.65;86.21;95913.69;5067641;28;20354;-75
2023/03/16 10:34:39;;;;;;;;;;;;;;;8.63;93.72;95916.31;5065420;28;19925;-76
2023/03/16 10:37:07;;;;;;;;;;;;;;;8.54;95.94;95914.25;5064913;28;19931;-75
2023/03/16 10:39:35;;;;;;;;;;;;;;;8.44;85.48;95908.72;5066407;28;19940;-74
2023/03/16 10:42:03;;;;;;;;;;;;;;;8.61;85.25;95914.75;5067480;28;20383;-75
2023/03/16 10:44:29;;;;;;;;;;;;;;;8.65;82.61;95913.69;5070123;28;19925;-75
2023/03/16 10:46:59;;;;;;;;;;;;;;;8.93;83.02;95907.88;5067501;28;20011;-75
2023/03/16 10:49:28;;;;;;;;;;;;;;;9.05;76.41;95909.81;5070501;28;19925;-76
2023/03/16 10:51:56;;;;;;;;;;;;;;;9.12;76.99;95907.69;5066824;28;19924;-76
2023/03/16 10:54:25;;;;;;;;;;;;;;;9.28;73.74;95908.53;5086598;28;19924;-75
2023/03/16 10:56:52;;;;;;;;;;;;;;;9.37;69.26;95902.84;5087180;28;19936;-76
2023/03/16 10:59:26;;;;;;;;;;;;;;;9.29;70.81;95910.19;5087376;28;19935;-76
2023/03/16 11:01:53;;;;;;;;;;;;;;;9.32;71.30;95899.69;5087471;28;19959;-75
2023/03/16 11:04:19;;;;;;;;;;;;;;;9.48;64.91;95904.81;5079983;28;19924;-75
2023/03/16 11:06:51;;;;;;;;;;;;;;;9.55;67.64;95902.72;5074667;28;19959;-75
2023/03/16 11:09:22;;;;;;;;;;;;;;;9.84;70.80;95914.00;5077490;28;19978;-75
2023/03/16 11:11:49;;;;;;;;;;;;;;;9.44;66.38;95909.34;5073124;28;20146;-75
2023/03/16 11:14:19;;;;;;;;;;;;;;;8.91;64.63;95907.97;5073227;28;19929;-75
2023/03/16 11:16:50;;;;;;;;;;;;;;;8.90;65.44;95906.31;5071845;28;19962;-76
2023/03/16 11:19:19;;;;;;;;;;;;;;;9.40;66.36;95900.09;5073700;28;19931;-74
2023/03/16 11:21:49;;;;;;;;;;;;;;;9.23;65.99;95902.75;5063264;28;19924;-76
2023/03/16 11:24:19;;;;;;;;;;;;;;;8.88;64.90;95897.78;5073324;28;20478;-75
2023/03/16 11:26:48;;;;;;;;;;;;;;;8.80;63.96;95897.38;5071042;28;20385;-75
2023/03/16 11:29:19;;;;;;;;;;;;;;;9.35;64.19;95878.84;5075073;28;20262;-75
2023/03/16 11:31:48;;;;;;;;;;;;;;;9.50;67.75;95873.72;5073046;28;20401;-77
2023/03/16 11:34:18;;;;;;;;;;;;;;;9.61;64.40;95876.53;5074222;28;19924;-77
2023/03/16 11:36:48;;;;;;;;;;;;;;;9.73;63.28;95878.41;5064721;28;19924;-76
2023/03/16 11:39:19;;;;;;;;;;;;;;;9.85;64.03;95871.69;5073531;28;20021;-76
2023/03/16 11:41:52;;;;;;;;;;;;;;;9.76;60.26;95862.72;5074715;28;20302;-75
2023/03/16 11:44:26;;;;;;;;;;;;;;;9.39;61.74;95862.25;5072987;28;20356;-76
2023/03/16 11:46:56;;;;;;;;;;;;;;;9.65;62.19;95852.16;5072013;28;20339;-76
2023/03/16 11:49:43;;;;;;;;;;;;;;;9.83;63.33;95852.84;5073126;28;19924;-76